createdAt,value
2022-09-14T00:00:28.091Z,20.44
2022-09-14T00:02:56.240Z,20.44
2022-09-14T00:05:24.255Z,20.44
2022-09-14T00:07:51.947Z,20.44
2022-09-14T00:10:19.794Z,20.45
2022-09-14T00:12:47.632Z,20.47
2022-09-14T00:15:15.741Z,20.45
2022-09-14T00:17:45.034Z,20.47
2022-09-14T00:20:13.227Z,20.47
2022-09-14T00:22:41.032Z,20.49
2022-09-14T00:25:09.738Z,20.50
2022-09-14T00:27:37.612Z,20.50
2022-09-14T00:30:06.477Z,20.50
2022-09-14T00:32:34.316Z,20.49
2022-09-14T00:35:03.681Z,20.49
2022-09-14T00:37:31.690Z,20.48
2022-09-14T00:39:59.668Z,20.46
2022-09-14T00:42:27.457Z,20.44
2022-09-14T00:45:11.552Z,20.43
2022-09-14T00:47:39.464Z,20.45
2022-09-14T00:50:10.218Z,20.46
2022-09-14T00:52:41.917Z,20.47
2022-09-14T00:55:13.483Z,20.48
2022-09-14T00:57:44.815Z,20.48
2022-09-14T01:00:14.783Z,20.50
2022-09-14T01:02:43.344Z,20.50
2022-09-14T01:05:13.536Z,20.52
2022-09-14T01:08:01.631Z,20.53
2022-09-14T01:10:41.148Z,20.53
2022-09-14T01:13:19.846Z,20.56
2022-09-14T01:15:56.524Z,20.57
2022-09-14T01:18:29.419Z,20.59
2022-09-14T01:21:03.889Z,20.60
2022-09-14T01:23:37.868Z,20.60
2022-09-14T01:26:39.948Z,20.60
2022-09-14T01:29:14.820Z,20.60
2022-09-14T01:31:50.562Z,20.61
2022-09-14T01:34:24.456Z,20.61
2022-09-14T01:36:59.041Z,20.61
2022-09-14T01:39:31.734Z,20.62
2022-09-14T01:42:01.505Z,20.62
2022-09-14T01:44:33.963Z,20.61
2022-09-14T01:47:06.586Z,20.58
2022-09-14T01:49:38.260Z,20.57
2022-09-14T01:52:10.118Z,20.54
2022-09-14T01:54:43.948Z,20.51
2022-09-14T01:57:17.708Z,20.49
2022-09-14T01:59:49.112Z,20.45
2022-09-14T02:02:21.179Z,20.43
2022-09-14T02:04:54.406Z,20.40
2022-09-14T02:07:22.210Z,20.40
2022-09-14T02:09:51.484Z,20.43
2022-09-14T02:12:19.544Z,20.45
2022-09-14T02:14:49.067Z,20.50
2022-09-14T02:17:17.212Z,20.52
2022-09-14T02:19:49.764Z,20.55
2022-09-14T02:22:17.379Z,20.53
2022-09-14T02:24:45.085Z,20.51
2022-09-14T02:27:12.708Z,20.51
2022-09-14T02:29:40.465Z,20.48
2022-09-14T02:32:20.591Z,20.47
2022-09-14T02:34:56.021Z,20.49
2022-09-14T02:37:31.499Z,20.50
2022-09-14T02:40:07.203Z,20.44
2022-09-14T02:42:41.254Z,20.35
2022-09-14T02:45:19.265Z,20.28
2022-09-14T02:47:55.981Z,20.22
2022-09-14T02:50:30.322Z,20.18
2022-09-14T02:53:03.078Z,20.15
2022-09-14T02:55:36.000Z,20.10
2022-09-14T02:58:06.289Z,20.05
2022-09-14T03:00:40.806Z,20.02
2022-09-14T03:03:11.965Z,20.00
2022-09-14T03:05:40.340Z,19.98
2022-09-14T03:08:10.267Z,19.95
2022-09-14T03:10:38.650Z,19.92
2022-09-14T03:13:06.353Z,19.93
2022-09-14T03:15:33.985Z,19.95
2022-09-14T03:18:01.677Z,19.95
2022-09-14T03:20:34.091Z,19.97
2022-09-14T03:23:02.361Z,19.99
2022-09-14T03:25:30.262Z,19.95
2022-09-14T03:27:59.205Z,19.86
2022-09-14T03:30:27.664Z,19.79
2022-09-14T03:32:55.268Z,19.70
2022-09-14T03:35:22.939Z,19.66
2022-09-14T03:37:52.281Z,19.61
2022-09-14T03:40:22.014Z,19.63
2022-09-14T03:42:52.156Z,19.62
2022-09-14T03:45:21.108Z,19.58
2022-09-14T03:47:49.332Z,19.52
2022-09-14T03:50:18.343Z,19.51
2022-09-14T03:52:46.235Z,19.46
2022-09-14T03:55:15.577Z,19.42
2022-09-14T03:57:43.237Z,19.35
2022-09-14T04:00:12.801Z,19.30
2022-09-14T04:02:40.906Z,19.27
2022-09-14T04:05:09.287Z,19.25
2022-09-14T04:07:38.065Z,19.24
2022-09-14T04:10:07.103Z,19.20
2022-09-14T04:12:36.880Z,19.21
2022-09-14T04:15:05.197Z,19.22
2022-09-14T04:17:32.977Z,19.21
2022-09-14T04:20:00.885Z,19.22
2022-09-14T04:22:28.480Z,19.23
2022-09-14T04:24:56.129Z,19.22
2022-09-14T04:27:23.724Z,19.20
2022-09-14T04:29:52.749Z,19.17
2022-09-14T04:32:20.430Z,19.09
2022-09-14T05:17:53.802Z,18.86
2022-09-14T05:20:21.399Z,18.90
2022-09-14T05:22:51.220Z,18.98
2022-09-14T05:25:18.977Z,19.02
2022-09-14T05:27:46.459Z,19.08
2022-09-14T05:30:14.139Z,19.12
2022-09-14T05:32:41.617Z,19.15
2022-09-14T05:35:11.133Z,19.21
2022-09-14T05:37:38.797Z,19.24
2022-09-14T05:40:07.735Z,19.28
2022-09-14T05:42:35.320Z,19.31
2022-09-14T05:47:44.504Z,19.33
2022-09-14T05:50:14.736Z,19.33
2022-09-14T05:52:42.266Z,19.34
2022-09-14T05:55:10.546Z,19.34
2022-09-14T05:57:38.144Z,19.35
2022-09-14T06:03:21.411Z,19.42
2022-09-14T06:05:50.349Z,19.42
2022-09-14T10:26:27.865Z,39.50
2022-09-14T10:28:55.408Z,40.29
2022-09-14T10:31:32.029Z,40.71
2022-09-14T10:34:00.784Z,41.18
2022-09-14T10:36:31.000Z,41.70
2022-09-14T10:39:04.740Z,41.97
2022-09-14T10:41:40.069Z,41.95
2022-09-14T10:44:33.451Z,41.85
2022-09-14T10:47:16.747Z,41.98
2022-09-14T10:49:57.982Z,41.33
2022-09-14T10:52:32.276Z,41.13
2022-09-14T10:55:16.047Z,40.76
2022-09-14T10:57:54.200Z,40.22
2022-09-14T11:00:22.821Z,39.56
2022-09-14T11:03:11.693Z,38.62
2022-09-14T11:05:44.589Z,37.75
2022-09-14T11:08:19.500Z,36.88
2022-09-14T11:10:56.818Z,36.01
2022-09-14T11:13:47.310Z,35.07
2022-09-14T11:16:30.881Z,34.29
2022-09-14T11:19:08.377Z,33.69
2022-09-14T11:21:48.093Z,33.25
2022-09-14T11:24:22.613Z,32.91
2022-09-14T11:27:00.223Z,32.59
2022-09-14T11:29:34.043Z,32.38
2022-09-14T11:32:22.687Z,32.04
2022-09-14T11:34:58.591Z,31.50
2022-09-14T11:37:34.443Z,31.03
2022-09-14T11:40:20.599Z,30.68
2022-09-14T11:43:00.391Z,30.54
2022-09-14T11:45:36.620Z,30.52
2022-09-14T11:48:41.994Z,30.41
2022-09-14T11:51:15.476Z,30.26
2022-09-14T11:53:44.820Z,30.10
2022-09-14T11:56:27.153Z,29.99
2022-09-14T11:58:56.669Z,29.88
2022-09-14T12:01:39.417Z,29.87
2022-09-14T12:04:19.361Z,29.80
2022-09-14T12:06:54.110Z,29.70
2022-09-14T12:09:54.704Z,29.69
2022-09-14T12:12:34.341Z,29.70
2022-09-14T12:15:04.973Z,29.67
2022-09-14T12:17:40.193Z,29.65
2022-09-14T12:20:29.826Z,29.60
2022-09-14T12:23:14.827Z,29.55
2022-09-14T12:25:58.012Z,29.54
2022-09-14T12:28:49.102Z,29.56
2022-09-14T12:31:36.726Z,29.60
2022-09-14T12:34:19.672Z,29.60
2022-09-14T12:37:18.368Z,29.56
2022-09-14T12:40:27.887Z,29.46
2022-09-14T12:42:55.727Z,29.42
2022-09-14T12:45:49.192Z,29.31
2022-09-14T12:48:58.541Z,29.16
2022-09-14T12:51:40.256Z,29.03
2022-09-14T12:54:20.794Z,28.90
2022-09-14T12:56:58.790Z,28.78
2022-09-14T12:59:34.956Z,28.66
2022-09-14T13:02:17.107Z,28.55
2022-09-14T13:04:47.821Z,28.43
2022-09-14T13:07:19.133Z,28.28
2022-09-14T13:09:49.025Z,28.15
2022-09-14T13:12:24.866Z,28.07
2022-09-14T13:14:55.688Z,27.94
2022-09-14T13:17:24.223Z,27.84
2022-09-14T13:19:56.104Z,27.73
2022-09-14T13:22:26.644Z,27.67
2022-09-14T13:24:56.259Z,27.54
2022-09-14T13:27:26.402Z,27.46
2022-09-14T13:30:03.047Z,27.39
2022-09-14T13:32:31.842Z,27.33
2022-09-14T13:34:59.477Z,27.28
2022-09-14T13:37:28.503Z,27.20
2022-09-14T13:39:58.823Z,27.09
2022-09-14T13:42:27.555Z,26.94
2022-09-14T13:44:55.482Z,26.78
2022-09-14T13:47:24.841Z,26.62
2022-09-14T13:49:54.501Z,26.49
2022-09-14T14:04:25.011Z,26.07
